sensor_id;sensor_type;location;lat;lon;timestamp;pressure;altitude;pressure_sealevel;temperature;humidity
52777;BME280;38656;54.260;20.822;2023-03-29T00:02:01;101292.63;;;6.65;50.65
52777;BME280;38656;54.260;20.822;2023-03-29T00:04:28;101290.09;;;6.81;49.23
52777;BME280;38656;54.260;20.822;2023-03-29T00:06:54;101282.16;;;6.11;50.75
52777;BME280;38656;54.260;20.822;2023-03-29T00:09:21;101287.47;;;7.48;50.27
52777;BME280;38656;54.260;20.822;2023-03-29T00:11:48;101287.66;;;6.94;50.96
52777;BME280;38656;54.260;20.822;2023-03-29T00:14:14;101293.91;;;7.08;50.25
52777;BME280;38656;54.260;20.822;2023-03-29T00:16:40;101291.84;;;7.15;49.35
52777;BME280;38656;54.260;20.822;2023-03-29T00:19:09;101292.59;;;7.00;49.80
52777;BME280;38656;54.260;20.822;2023-03-29T00:21:35;101296.25;;;6.45;50.42
52777;BME280;38656;54.260;20.822;2023-03-29T00:24:04;101300.72;;;6.06;51.78
52777;BME280;38656;54.260;20.822;2023-03-29T00:26:30;101292.06;;;5.66;52.39
52777;BME280;38656;54.260;20.822;2023-03-29T00:28:56;101296.78;;;6.51;50.96
52777;BME280;38656;54.260;20.822;2023-03-29T00:31:22;101296.63;;;7.07;50.57
52777;BME280;38656;54.260;20.822;2023-03-29T00:33:48;101294.97;;;6.53;49.64
52777;BME280;38656;54.260;20.822;2023-03-29T00:36:14;101300.97;;;6.73;49.45
52777;BME280;38656;54.260;20.822;2023-03-29T00:38:41;101301.09;;;6.35;49.92
52777;BME280;38656;54.260;20.822;2023-03-29T00:41:08;101298.50;;;6.87;49.26
52777;BME280;38656;54.260;20.822;2023-03-29T00:43:58;101301.38;;;7.50;48.17
52777;BME280;38656;54.260;20.822;2023-03-29T00:46:25;101302.44;;;7.95;46.89
52777;BME280;38656;54.260;20.822;2023-03-29T00:48:54;101302.28;;;9.48;44.30
52777;BME280;38656;54.260;20.822;2023-03-29T00:51:25;101298.03;;;9.74;43.40
52777;BME280;38656;54.260;20.822;2023-03-29T00:53:58;101301.72;;;9.00;44.16
52777;BME280;38656;54.260;20.822;2023-03-29T00:56:33;101309.94;;;6.15;50.93
52777;BME280;38656;54.260;20.822;2023-03-29T00:59:11;101308.72;;;5.25;53.30
52777;BME280;38656;54.260;20.822;2023-03-29T01:01:40;101307.78;;;5.66;53.11
52777;BME280;38656;54.260;20.822;2023-03-29T01:04:25;101309.81;;;5.40;53.76
52777;BME280;38656;54.260;20.822;2023-03-29T01:07:09;101310.22;;;5.71;52.99
52777;BME280;38656;54.260;20.822;2023-03-29T01:09:44;101314.53;;;6.46;51.57
52777;BME280;38656;54.260;20.822;2023-03-29T01:12:16;101312.06;;;6.43;51.61
52777;BME280;38656;54.260;20.822;2023-03-29T01:14:51;101315.31;;;7.68;48.57
52777;BME280;38656;54.260;20.822;2023-03-29T01:17:19;101315.16;;;7.21;48.98
52777;BME280;38656;54.260;20.822;2023-03-29T01:20:05;101313.00;;;6.77;49.13
52777;BME280;38656;54.260;20.822;2023-03-29T01:27:55;101316.25;;;5.92;50.93
52777;BME280;38656;54.260;20.822;2023-03-29T01:30:31;101308.03;;;7.06;50.53
52777;BME280;38656;54.260;20.822;2023-03-29T01:33:04;101306.19;;;7.08;49.82
52777;BME280;38656;54.260;20.822;2023-03-29T01:38:49;101304.81;;;8.92;45.80
52777;BME280;38656;54.260;20.822;2023-03-29T01:41:17;101298.97;;;8.87;46.28
52777;BME280;38656;54.260;20.822;2023-03-29T01:43:54;101306.47;;;9.38;44.57
52777;BME280;38656;54.260;20.822;2023-03-29T01:49:03;101302.44;;;8.88;44.49
52777;BME280;38656;54.260;20.822;2023-03-29T01:51:40;101299.94;;;9.15;43.68
52777;BME280;38656;54.260;20.822;2023-03-29T01:54:33;101295.13;;;9.07;43.60
52777;BME280;38656;54.260;20.822;2023-03-29T01:57:00;101303.91;;;8.63;44.12
52777;BME280;38656;54.260;20.822;2023-03-29T01:59:32;101298.75;;;8.45;45.13
52777;BME280;38656;54.260;20.822;2023-03-29T02:02:02;101312.88;;;5.50;51.64
52777;BME280;38656;54.260;20.822;2023-03-29T02:04:38;101310.91;;;5.36;53.17
52777;BME280;38656;54.260;20.822;2023-03-29T02:07:08;101301.72;;;6.40;52.40
52777;BME280;38656;54.260;20.822;2023-03-29T02:09:36;101318.91;;;5.12;55.62
52777;BME280;38656;54.260;20.822;2023-03-29T02:12:04;101315.75;;;5.04;55.32
52777;BME280;38656;54.260;20.822;2023-03-29T02:14:31;101316.47;;;6.06;53.64
52777;BME280;38656;54.260;20.822;2023-03-29T02:25:28;101314.34;;;6.14;53.19
52777;BME280;38656;54.260;20.822;2023-03-29T02:27:55;101323.78;;;5.60;52.46
52777;BME280;38656;54.260;20.822;2023-03-29T02:30:23;101316.69;;;6.38;51.02
52777;BME280;38656;54.260;20.822;2023-03-29T02:38:47;101307.84;;;9.15;45.13
52777;BME280;38656;54.260;20.822;2023-03-29T02:41:14;101313.59;;;7.51;47.11
52777;BME280;38656;54.260;20.822;2023-03-29T02:43:43;101317.72;;;6.70;50.45
52777;BME280;38656;54.260;20.822;2023-03-29T02:46:12;101323.31;;;5.31;53.09
52777;BME280;38656;54.260;20.822;2023-03-29T02:48:40;101310.22;;;4.91;54.83
52777;BME280;38656;54.260;20.822;2023-03-29T02:51:21;101313.72;;;5.50;54.50
52777;BME280;38656;54.260;20.822;2023-03-29T02:54:05;101310.19;;;5.90;53.56
52777;BME280;38656;54.260;20.822;2023-03-29T02:56:44;101315.41;;;5.32;54.56
52777;BME280;38656;54.260;20.822;2023-03-29T02:59:12;101313.72;;;5.50;54.59
52777;BME280;38656;54.260;20.822;2023-03-29T03:01:39;101310.22;;;6.09;54.23
52777;BME280;38656;54.260;20.822;2023-03-29T03:04:08;101309.06;;;5.76;54.25
52777;BME280;38656;54.260;20.822;2023-03-29T03:06:38;101309.81;;;6.35;52.80
52777;BME280;38656;54.260;20.822;2023-03-29T03:09:04;101301.91;;;6.89;50.06
52777;BME280;38656;54.260;20.822;2023-03-29T03:11:32;101298.94;;;8.73;46.57
52777;BME280;38656;54.260;20.822;2023-03-29T03:13:58;101301.13;;;6.52;49.69
52777;BME280;38656;54.260;20.822;2023-03-29T03:16:25;101301.81;;;5.24;52.91
52777;BME280;38656;54.260;20.822;2023-03-29T03:18:52;101312.19;;;5.84;52.66
52777;BME280;38656;54.260;20.822;2023-03-29T03:21:20;101309.81;;;5.40;54.34
52777;BME280;38656;54.260;20.822;2023-03-29T03:23:47;101314.25;;;5.59;54.99
52777;BME280;38656;54.260;20.822;2023-03-29T03:26:15;101312.22;;;4.64;57.05
52777;BME280;38656;54.260;20.822;2023-03-29T03:28:43;101310.16;;;5.13;56.67
52777;BME280;38656;54.260;20.822;2023-03-29T03:31:11;101309.91;;;7.04;52.18
52777;BME280;38656;54.260;20.822;2023-03-29T03:33:41;101303.41;;;6.24;53.59
52777;BME280;38656;54.260;20.822;2023-03-29T03:36:08;101308.59;;;8.42;48.39
52777;BME280;38656;54.260;20.822;2023-03-29T03:38:36;101302.75;;;8.97;46.61
52777;BME280;38656;54.260;20.822;2023-03-29T03:41:03;101311.31;;;5.46;52.73
52777;BME280;38656;54.260;20.822;2023-03-29T03:43:29;101317.03;;;5.35;54.92
52777;BME280;38656;54.260;20.822;2023-03-29T03:45:56;101312.69;;;5.15;54.87
52777;BME280;38656;54.260;20.822;2023-03-29T03:48:23;101314.97;;;5.23;54.24
52777;BME280;38656;54.260;20.822;2023-03-29T03:50:52;101314.91;;;5.83;54.34
52777;BME280;38656;54.260;20.822;2023-03-29T03:53:18;101321.38;;;4.95;55.27
52777;BME280;38656;54.260;20.822;2023-03-29T03:55:49;101322.53;;;4.47;57.20
52777;BME280;38656;54.260;20.822;2023-03-29T03:58:16;101322.13;;;5.59;55.77
52777;BME280;38656;54.260;20.822;2023-03-29T04:00:42;101324.41;;;5.27;53.93
52777;BME280;38656;54.260;20.822;2023-03-29T04:03:09;101329.09;;;5.39;55.91
52777;BME280;38656;54.260;20.822;2023-03-29T04:05:39;101329.78;;;5.03;57.96
52777;BME280;38656;54.260;20.822;2023-03-29T04:08:06;101339.81;;;3.59;60.84
52777;BME280;38656;54.260;20.822;2023-03-29T04:10:33;101331.81;;;4.76;61.27
52777;BME280;38656;54.260;20.822;2023-03-29T04:13:00;101329.38;;;4.71;60.56
52777;BME280;38656;54.260;20.822;2023-03-29T04:15:31;101329.31;;;5.54;60.11
52777;BME280;38656;54.260;20.822;2023-03-29T04:17:59;101328.84;;;7.44;52.53
52777;BME280;38656;54.260;20.822;2023-03-29T04:20:26;101320.88;;;6.60;52.43
52777;BME280;38656;54.260;20.822;2023-03-29T04:22:53;101324.63;;;6.36;54.51
52777;BME280;38656;54.260;20.822;2023-03-29T04:25:19;101326.88;;;7.97;51.11
52777;BME280;38656;54.260;20.822;2023-03-29T04:27:48;101335.44;;;5.13;53.62
52777;BME280;38656;54.260;20.822;2023-03-29T04:30:15;101348.38;;;4.32;58.34
52777;BME280;38656;54.260;20.822;2023-03-29T04:32:42;101342.66;;;5.08;59.61
52777;BME280;38656;54.260;20.822;2023-03-29T04:35:08;101343.59;;;5.46;61.01
52777;BME280;38656;54.260;20.822;2023-03-29T04:37:35;101332.50;;;5.21;60.18
52777;BME280;38656;54.260;20.822;2023-03-29T04:40:02;101330.28;;;6.46;56.87
52777;BME280;38656;54.260;20.822;2023-03-29T04:42:34;101324.84;;;7.86;52.42
52777;BME280;38656;54.260;20.822;2023-03-29T04:45:00;101316.00;;;7.87;52.32
52777;BME280;38656;54.260;20.822;2023-03-29T04:47:26;101322.44;;;8.76;47.97
52777;BME280;38656;54.260;20.822;2023-03-29T04:49:54;101330.19;;;7.35;50.38
52777;BME280;38656;54.260;20.822;2023-03-29T04:52:21;101332.78;;;7.02;51.89
52777;BME280;38656;54.260;20.822;2023-03-29T04:54:47;101329.78;;;7.25;51.83
52777;BME280;38656;54.260;20.822;2023-03-29T04:57:13;101323.59;;;8.72;48.96
52777;BME280;38656;54.260;20.822;2023-03-29T04:59:40;101329.28;;;9.09;47.74
52777;BME280;38656;54.260;20.822;2023-03-29T05:02:06;101332.63;;;8.04;48.78
52777;BME280;38656;54.260;20.822;2023-03-29T05:04:33;101327.78;;;5.88;53.61
52777;BME280;38656;54.260;20.822;2023-03-29T05:07:00;101325.72;;;6.50;54.88
52777;BME280;38656;54.260;20.822;2023-03-29T05:09:27;101326.66;;;7.52;53.32
52777;BME280;38656;54.260;20.822;2023-03-29T05:11:53;101314.50;;;9.78;49.82
52777;BME280;38656;54.260;20.822;2023-03-29T05:14:20;101325.41;;;10.42;45.94
52777;BME280;38656;54.260;20.822;2023-03-29T05:16:46;101343.44;;;6.99;51.52
52777;BME280;38656;54.260;20.822;2023-03-29T05:19:12;101341.56;;;8.01;51.05
52777;BME280;38656;54.260;20.822;2023-03-29T05:21:38;101339.66;;;9.41;49.09
52777;BME280;38656;54.260;20.822;2023-03-29T05:24:05;101326.72;;;10.62;45.15
52777;BME280;38656;54.260;20.822;2023-03-29T05:26:31;101346.38;;;7.43;50.04
52777;BME280;38656;54.260;20.822;2023-03-29T05:28:58;101339.88;;;9.52;49.61
52777;BME280;38656;54.260;20.822;2023-03-29T05:31:24;101344.59;;;7.77;51.63
52777;BME280;38656;54.260;20.822;2023-03-29T05:33:51;101353.63;;;7.05;54.16
52777;BME280;38656;54.260;20.822;2023-03-29T05:36:18;101349.38;;;5.93;56.49
52777;BME280;38656;54.260;20.822;2023-03-29T05:38:45;101351.16;;;7.02;55.40
52777;BME280;38656;54.260;20.822;2023-03-29T05:41:15;101346.72;;;8.03;53.28
52777;BME280;38656;54.260;20.822;2023-03-29T05:43:42;101353.31;;;7.11;55.22
52777;BME280;38656;54.260;20.822;2023-03-29T05:46:09;101346.63;;;7.39;54.32
52777;BME280;38656;54.260;20.822;2023-03-29T05:48:35;101345.22;;;6.81;56.61
52777;BME280;38656;54.260;20.822;2023-03-29T05:51:02;101346.34;;;7.10;56.17
52777;BME280;38656;54.260;20.822;2023-03-29T05:53:28;101354.59;;;7.87;52.62
52777;BME280;38656;54.260;20.822;2023-03-29T05:55:54;101344.84;;;7.89;53.63
52777;BME280;38656;54.260;20.822;2023-03-29T05:58:21;101355.13;;;8.57;52.67
52777;BME280;38656;54.260;20.822;2023-03-29T06:00:48;101354.06;;;7.31;54.20
52777;BME280;38656;54.260;20.822;2023-03-29T06:03:19;101343.06;;;9.28;51.42
52777;BME280;38656;54.260;20.822;2023-03-29T06:05:47;101352.94;;;8.80;51.18
52777;BME280;38656;54.260;20.822;2023-03-29T06:08:15;101370.16;;;7.24;52.68
52777;BME280;38656;54.260;20.822;2023-03-29T06:10:42;101364.59;;;6.96;56.16
52777;BME280;38656;54.260;20.822;2023-03-29T06:13:08;101365.22;;;7.18;56.36
52777;BME280;38656;54.260;20.822;2023-03-29T06:15:35;101362.88;;;6.77;58.75
52777;BME280;38656;54.260;20.822;2023-03-29T06:18:02;101355.53;;;7.19;55.07
52777;BME280;38656;54.260;20.822;2023-03-29T06:20:28;101359.25;;;9.80;52.66
52777;BME280;38656;54.260;20.822;2023-03-29T06:22:54;101354.38;;;9.45;51.68
52777;BME280;38656;54.260;20.822;2023-03-29T06:25:20;101359.59;;;8.23;53.12
52777;BME280;38656;54.260;20.822;2023-03-29T06:27:47;101352.47;;;10.99;48.95
52777;BME280;38656;54.260;20.822;2023-03-29T06:30:14;101352.06;;;9.10;51.73
52777;BME280;38656;54.260;20.822;2023-03-29T06:32:44;101351.91;;;8.82;53.25
52777;BME280;38656;54.260;20.822;2023-03-29T06:35:10;101348.34;;;10.55;50.53
52777;BME280;38656;54.260;20.822;2023-03-29T06:37:37;101352.94;;;11.19;51.16
52777;BME280;38656;54.260;20.822;2023-03-29T06:40:15;101365.88;;;7.73;55.26
52777;BME280;38656;54.260;20.822;2023-03-29T06:42:45;101363.41;;;9.26;52.83
52777;BME280;38656;54.260;20.822;2023-03-29T06:45:11;101365.16;;;10.54;51.36
52777;BME280;38656;54.260;20.822;2023-03-29T06:47:38;101363.06;;;10.59;52.35
52777;BME280;38656;54.260;20.822;2023-03-29T06:50:06;101356.59;;;9.94;53.82
52777;BME280;38656;54.260;20.822;2023-03-29T06:52:33;101352.88;;;9.55;53.51
52777;BME280;38656;54.260;20.822;2023-03-29T06:55:00;101352.47;;;13.33;48.27
52777;BME280;38656;54.260;20.822;2023-03-29T06:57:32;101354.09;;;11.14;48.78
52777;BME280;38656;54.260;20.822;2023-03-29T06:59:58;101367.75;;;8.50;52.83
52777;BME280;38656;54.260;20.822;2023-03-29T07:02:25;101362.81;;;9.21;56.36
52777;BME280;38656;54.260;20.822;2023-03-29T07:04:51;101358.16;;;10.11;54.88
52777;BME280;38656;54.260;20.822;2023-03-29T07:07:17;101365.31;;;10.38;51.60
52777;BME280;38656;54.260;20.822;2023-03-29T07:09:47;101368.25;;;11.01;52.44
52777;BME280;38656;54.260;20.822;2023-03-29T07:12:20;101366.44;;;10.61;54.05
52777;BME280;38656;54.260;20.822;2023-03-29T07:14:47;101361.06;;;11.67;48.85
52777;BME280;38656;54.260;20.822;2023-03-29T07:17:13;101366.22;;;9.81;52.54
52777;BME280;38656;54.260;20.822;2023-03-29T07:19:41;101352.69;;;10.56;51.20
52777;BME280;38656;54.260;20.822;2023-03-29T07:22:07;101355.00;;;12.52;49.78
52777;BME280;38656;54.260;20.822;2023-03-29T07:24:34;101351.53;;;11.51;51.34
52777;BME280;38656;54.260;20.822;2023-03-29T07:27:01;101349.25;;;14.41;45.26
52777;BME280;38656;54.260;20.822;2023-03-29T07:29:27;101346.19;;;15.20;44.66
52777;BME280;38656;54.260;20.822;2023-03-29T07:31:54;101355.47;;;13.28;47.05
52777;BME280;38656;54.260;20.822;2023-03-29T07:34:21;101363.13;;;9.74;51.75
52777;BME280;38656;54.260;20.822;2023-03-29T07:36:47;101361.97;;;10.49;54.71
52777;BME280;38656;54.260;20.822;2023-03-29T07:39:13;101352.13;;;14.38;46.41
52777;BME280;38656;54.260;20.822;2023-03-29T07:41:40;101357.25;;;11.20;50.29
52777;BME280;38656;54.260;20.822;2023-03-29T07:44:06;101347.06;;;11.65;53.08
52777;BME280;38656;54.260;20.822;2023-03-29T07:46:37;101350.81;;;11.24;52.05
52777;BME280;38656;54.260;20.822;2023-03-29T07:49:03;101349.88;;;12.37;50.13
52777;BME280;38656;54.260;20.822;2023-03-29T07:51:30;101339.31;;;13.31;48.47
52777;BME280;38656;54.260;20.822;2023-03-29T07:53:56;101341.22;;;13.29;47.58
52777;BME280;38656;54.260;20.822;2023-03-29T07:56:22;101338.75;;;12.92;47.40
52777;BME280;38656;54.260;20.822;2023-03-29T07:58:49;101332.50;;;13.40;48.55
52777;BME280;38656;54.260;20.822;2023-03-29T08:01:16;101328.31;;;14.80;46.53
52777;BME280;38656;54.260;20.822;2023-03-29T08:03:44;101332.47;;;13.51;45.81
52777;BME280;38656;54.260;20.822;2023-03-29T08:06:10;101324.75;;;15.12;44.58
52777;BME280;38656;54.260;20.822;2023-03-29T08:08:36;101329.78;;;13.96;46.21
52777;BME280;38656;54.260;20.822;2023-03-29T08:11:03;101333.13;;;12.37;47.86
52777;BME280;38656;54.260;20.822;2023-03-29T08:13:29;101334.56;;;11.93;48.14
52777;BME280;38656;54.260;20.822;2023-03-29T08:15:55;101333.97;;;11.50;50.73
52777;BME280;38656;54.260;20.822;2023-03-29T08:18:22;101337.16;;;12.54;48.60
52777;BME280;38656;54.260;20.822;2023-03-29T08:20:49;101330.97;;;13.13;48.24
52777;BME280;38656;54.260;20.822;2023-03-29T08:23:16;101329.50;;;16.59;43.50
52777;BME280;38656;54.260;20.822;2023-03-29T08:25:44;101335.03;;;14.19;45.83
52777;BME280;38656;54.260;20.822;2023-03-29T08:28:10;101328.09;;;15.14;46.13
52777;BME280;38656;54.260;20.822;2023-03-29T08:30:36;101335.69;;;14.97;44.90
52777;BME280;38656;54.260;20.822;2023-03-29T08:33:03;101333.19;;;13.53;47.75
52777;BME280;38656;54.260;20.822;2023-03-29T08:35:29;101333.56;;;14.70;48.42
52777;BME280;38656;54.260;20.822;2023-03-29T08:37:55;101334.00;;;13.31;44.64
52777;BME280;38656;54.260;20.822;2023-03-29T08:40:25;101322.25;;;14.24;44.22
52777;BME280;38656;54.260;20.822;2023-03-29T08:46:06;101321.88;;;13.62;44.12
52777;BME280;38656;54.260;20.822;2023-03-29T08:48:40;101319.72;;;14.11;40.10
52777;BME280;38656;54.260;20.822;2023-03-29T08:51:24;101315.19;;;16.31;38.86
52777;BME280;38656;54.260;20.822;2023-03-29T08:56:27;101308.44;;;16.17;37.51
52777;BME280;38656;54.260;20.822;2023-03-29T08:58:56;101315.00;;;15.22;38.36
52777;BME280;38656;54.260;20.822;2023-03-29T09:01:26;101311.81;;;15.28;38.90
52777;BME280;38656;54.260;20.822;2023-03-29T09:04:17;101315.88;;;15.73;35.92
52777;BME280;38656;54.260;20.822;2023-03-29T09:06:46;101308.13;;;13.46;38.04
52777;BME280;38656;54.260;20.822;2023-03-29T09:09:19;101324.66;;;14.16;36.72
52777;BME280;38656;54.260;20.822;2023-03-29T09:14:43;101310.47;;;14.38;38.22
52777;BME280;38656;54.260;20.822;2023-03-29T09:26:26;101309.97;;;12.87;39.40
52777;BME280;38656;54.260;20.822;2023-03-29T09:31:28;101305.06;;;16.54;35.43
52777;BME280;38656;54.260;20.822;2023-03-29T09:34:20;101295.22;;;14.40;37.19
52777;BME280;38656;54.260;20.822;2023-03-29T09:37:08;101306.06;;;13.50;37.17
52777;BME280;38656;54.260;20.822;2023-03-29T09:39:36;101297.50;;;14.45;37.89
52777;BME280;38656;54.260;20.822;2023-03-29T09:42:09;101304.78;;;14.43;36.75
52777;BME280;38656;54.260;20.822;2023-03-29T09:44:46;101295.03;;;15.37;37.82
52777;BME280;38656;54.260;20.822;2023-03-29T09:47:24;101299.09;;;15.11;37.39
52777;BME280;38656;54.260;20.822;2023-03-29T09:49:56;101292.97;;;16.79;35.55
52777;BME280;38656;54.260;20.822;2023-03-29T09:52:24;101298.13;;;15.43;36.34
52777;BME280;38656;54.260;20.822;2023-03-29T09:54:51;101303.13;;;15.05;36.13
52777;BME280;38656;54.260;20.822;2023-03-29T09:57:19;101290.44;;;14.66;37.28
52777;BME280;38656;54.260;20.822;2023-03-29T09:59:47;101288.34;;;15.53;36.29
52777;BME280;38656;54.260;20.822;2023-03-29T10:02:14;101297.50;;;13.35;37.11
52777;BME280;38656;54.260;20.822;2023-03-29T10:04:43;101280.94;;;14.74;36.07
52777;BME280;38656;54.260;20.822;2023-03-29T10:07:17;101286.16;;;14.43;36.44
52777;BME280;38656;54.260;20.822;2023-03-29T10:09:43;101285.75;;;15.32;35.12
52777;BME280;38656;54.260;20.822;2023-03-29T10:12:11;101277.84;;;14.68;36.25
52777;BME280;38656;54.260;20.822;2023-03-29T10:14:48;101273.13;;;15.74;35.19
52777;BME280;38656;54.260;20.822;2023-03-29T10:17:24;101279.44;;;13.40;36.13
52777;BME280;38656;54.260;20.822;2023-03-29T10:20:00;101273.31;;;13.83;37.38
52777;BME280;38656;54.260;20.822;2023-03-29T10:22:34;101290.59;;;12.63;37.17
52777;BME280;38656;54.260;20.822;2023-03-29T10:25:12;101282.25;;;13.03;36.20
52777;BME280;38656;54.260;20.822;2023-03-29T10:27:41;101271.94;;;15.79;36.96
52777;BME280;38656;54.260;20.822;2023-03-29T10:30:10;101255.03;;;17.05;34.99
52777;BME280;38656;54.260;20.822;2023-03-29T10:32:38;101271.16;;;15.26;35.89
52777;BME280;38656;54.260;20.822;2023-03-29T10:37:41;101267.75;;;14.51;36.99
52777;BME280;38656;54.260;20.822;2023-03-29T10:40:39;101268.63;;;15.55;36.00
52777;BME280;38656;54.260;20.822;2023-03-29T10:43:14;101250.44;;;16.78;33.16
52777;BME280;38656;54.260;20.822;2023-03-29T10:45:53;101255.59;;;18.10;33.18
52777;BME280;38656;54.260;20.822;2023-03-29T10:48:27;101255.69;;;13.93;36.54
52777;BME280;38656;54.260;20.822;2023-03-29T10:50:58;101255.63;;;14.69;36.76
52777;BME280;38656;54.260;20.822;2023-03-29T11:01:35;101253.59;;;14.83;36.98
52777;BME280;38656;54.260;20.822;2023-03-29T11:06:45;101243.91;;;15.94;37.22
52777;BME280;38656;54.260;20.822;2023-03-29T11:15:06;101250.91;;;15.35;35.38
52777;BME280;38656;54.260;20.822;2023-03-29T11:23:10;101231.84;;;16.00;33.65
52777;BME280;38656;54.260;20.822;2023-03-29T11:25:48;101236.63;;;16.06;35.16
52777;BME280;38656;54.260;20.822;2023-03-29T11:33:34;101235.38;;;17.34;31.35
52777;BME280;38656;54.260;20.822;2023-03-29T11:42:25;101241.78;;;14.01;31.56
52777;BME280;38656;54.260;20.822;2023-03-29T11:44:55;101229.84;;;16.60;32.07
52777;BME280;38656;54.260;20.822;2023-03-29T11:47:31;101231.50;;;17.28;30.91
52777;BME280;38656;54.260;20.822;2023-03-29T11:50:20;101222.59;;;18.19;30.37
52777;BME280;38656;54.260;20.822;2023-03-29T11:53:04;101229.72;;;16.62;30.16
52777;BME280;38656;54.260;20.822;2023-03-29T11:55:35;101217.16;;;16.82;30.44
52777;BME280;38656;54.260;20.822;2023-03-29T11:58:30;101219.78;;;17.39;29.64
52777;BME280;38656;54.260;20.822;2023-03-29T12:01:05;101206.72;;;18.18;27.63
52777;BME280;38656;54.260;20.822;2023-03-29T12:03:39;101208.50;;;17.45;27.24
52777;BME280;38656;54.260;20.822;2023-03-29T12:09:11;101213.28;;;16.57;28.17
52777;BME280;38656;54.260;20.822;2023-03-29T12:11:53;101209.81;;;15.18;30.43
52777;BME280;38656;54.260;20.822;2023-03-29T12:16:58;101193.00;;;17.95;28.69
52777;BME280;38656;54.260;20.822;2023-03-29T12:22:22;101195.97;;;14.93;30.34
52777;BME280;38656;54.260;20.822;2023-03-29T12:24:51;101188.56;;;17.40;28.97
52777;BME280;38656;54.260;20.822;2023-03-29T12:38:27;101172.00;;;17.36;28.44
52777;BME280;38656;54.260;20.822;2023-03-29T12:40:59;101180.53;;;17.67;28.31
52777;BME280;38656;54.260;20.822;2023-03-29T12:43:38;101184.88;;;16.75;26.93
52777;BME280;38656;54.260;20.822;2023-03-29T12:46:07;101178.63;;;18.66;24.43
52777;BME280;38656;54.260;20.822;2023-03-29T12:48:38;101172.72;;;20.15;24.14
52777;BME280;38656;54.260;20.822;2023-03-29T12:51:11;101173.41;;;18.12;25.15
52777;BME280;38656;54.260;20.822;2023-03-29T12:56:11;101182.22;;;16.08;30.56
52777;BME280;38656;54.260;20.822;2023-03-29T13:01:08;101169.13;;;17.83;27.49
52777;BME280;38656;54.260;20.822;2023-03-29T13:06:11;101170.50;;;17.87;26.18
52777;BME280;38656;54.260;20.822;2023-03-29T13:08:43;101170.94;;;18.37;25.72
52777;BME280;38656;54.260;20.822;2023-03-29T13:11:33;101160.66;;;21.00;25.27
52777;BME280;38656;54.260;20.822;2023-03-29T13:14:11;101161.09;;;19.49;25.91
52777;BME280;38656;54.260;20.822;2023-03-29T13:16:40;101160.31;;;19.06;26.24
52777;BME280;38656;54.260;20.822;2023-03-29T13:32:55;101156.22;;;18.93;24.19
52777;BME280;38656;54.260;20.822;2023-03-29T13:38:46;101157.19;;;17.24;25.51
52777;BME280;38656;54.260;20.822;2023-03-29T13:46:48;101144.25;;;18.45;24.06
52777;BME280;38656;54.260;20.822;2023-03-29T13:49:23;101146.41;;;17.43;24.88
52777;BME280;38656;54.260;20.822;2023-03-29T13:52:04;101144.75;;;20.02;22.24
52777;BME280;38656;54.260;20.822;2023-03-29T13:55:24;101151.53;;;18.35;23.56
52777;BME280;38656;54.260;20.822;2023-03-29T13:57:37;101152.94;;;19.08;22.94
52777;BME280;38656;54.260;20.822;2023-03-29T14:02:49;101150.94;;;16.10;24.49
52777;BME280;38656;54.260;20.822;2023-03-29T14:05:20;101151.91;;;15.51;24.33
52777;BME280;38656;54.260;20.822;2023-03-29T14:07:53;101155.28;;;16.12;24.60
52777;BME280;38656;54.260;20.822;2023-03-29T14:10:41;101152.09;;;16.65;25.14
52777;BME280;38656;54.260;20.822;2023-03-29T14:13:12;101146.22;;;17.27;24.63
52777;BME280;38656;54.260;20.822;2023-03-29T14:15:44;101142.75;;;17.16;25.34
52777;BME280;38656;54.260;20.822;2023-03-29T14:18:15;101144.25;;;16.54;24.83
52777;BME280;38656;54.260;20.822;2023-03-29T14:20:50;101126.94;;;19.51;23.01
52777;BME280;38656;54.260;20.822;2023-03-29T14:23:22;101135.16;;;18.64;23.54
52777;BME280;38656;54.260;20.822;2023-03-29T14:25:48;101135.63;;;16.32;24.44
52777;BME280;38656;54.260;20.822;2023-03-29T14:28:26;101137.75;;;16.09;25.46
52777;BME280;38656;54.260;20.822;2023-03-29T14:30:54;101128.53;;;19.19;24.24
52777;BME280;38656;54.260;20.822;2023-03-29T14:33:31;101138.19;;;15.85;24.92
52777;BME280;38656;54.260;20.822;2023-03-29T14:36:02;101130.22;;;14.95;26.19
52777;BME280;38656;54.260;20.822;2023-03-29T14:38:30;101120.94;;;16.56;26.12
52777;BME280;38656;54.260;20.822;2023-03-29T14:41:01;101128.66;;;15.92;26.33
52777;BME280;38656;54.260;20.822;2023-03-29T14:43:29;101120.28;;;17.37;25.17
52777;BME280;38656;54.260;20.822;2023-03-29T14:46:02;101116.00;;;17.80;25.59
52777;BME280;38656;54.260;20.822;2023-03-29T14:48:29;101122.63;;;16.00;26.57
52777;BME280;38656;54.260;20.822;2023-03-29T14:50:59;101113.75;;;16.28;26.52
52777;BME280;38656;54.260;20.822;2023-03-29T14:53:27;101118.56;;;16.05;26.41
52777;BME280;38656;54.260;20.822;2023-03-29T14:55:56;101116.03;;;15.74;26.82
52777;BME280;38656;54.260;20.822;2023-03-29T14:58:33;101105.66;;;16.86;25.89
52777;BME280;38656;54.260;20.822;2023-03-29T15:01:17;101105.97;;;16.83;26.46
52777;BME280;38656;54.260;20.822;2023-03-29T15:06:15;101105.81;;;16.46;27.40
52777;BME280;38656;54.260;20.822;2023-03-29T15:08:42;101106.94;;;15.48;27.25
52777;BME280;38656;54.260;20.822;2023-03-29T15:11:20;101104.41;;;15.75;27.91
52777;BME280;38656;54.260;20.822;2023-03-29T15:13:49;101103.88;;;15.82;28.69
52777;BME280;38656;54.260;20.822;2023-03-29T15:16:20;101098.41;;;15.93;28.75
52777;BME280;38656;54.260;20.822;2023-03-29T15:18:51;101095.31;;;14.79;28.50